createdAt,value
2018-08-22T00:01:12.009Z,77.30
2018-08-22T00:03:38.317Z,77.24
2018-08-22T00:06:04.637Z,77.87
2018-08-22T00:08:30.956Z,77.71
2018-08-22T00:10:57.271Z,78.25
2018-08-22T00:13:23.588Z,79.11
2018-08-22T00:15:49.893Z,78.67
2018-08-22T00:18:16.216Z,79.25
2018-08-22T00:20:42.534Z,79.66
2018-08-22T00:23:08.885Z,79.26
2018-08-22T00:25:35.197Z,79.42
2018-08-22T00:28:01.542Z,79.61
2018-08-22T00:30:27.891Z,79.83
2018-08-22T00:32:54.245Z,80.01
2018-08-22T00:35:23.337Z,80.29
2018-08-22T00:37:49.667Z,80.51
2018-08-22T00:40:16.060Z,80.25
2018-08-22T00:42:42.354Z,80.33
2018-08-22T00:45:08.697Z,80.13
2018-08-22T00:47:35.034Z,80.08
2018-08-22T00:50:01.411Z,80.48
2018-08-22T00:52:27.741Z,80.81
2018-08-22T00:54:54.066Z,80.88
2018-08-22T00:57:20.414Z,80.91
2018-08-22T00:59:46.789Z,80.87
2018-08-22T01:02:13.139Z,81.30
2018-08-22T01:04:39.491Z,82.12
2018-08-22T01:07:05.817Z,82.75
2018-08-22T01:09:32.198Z,83.13
2018-08-22T01:11:58.506Z,83.41
2018-08-22T01:14:24.847Z,83.13
2018-08-22T01:16:51.202Z,82.80
2018-08-22T01:19:17.528Z,82.69
2018-08-22T01:21:43.895Z,82.80
2018-08-22T01:24:10.250Z,82.63
2018-08-22T01:26:36.583Z,82.98
2018-08-22T01:29:02.938Z,83.72
2018-08-22T01:31:29.271Z,83.60
2018-08-22T01:33:55.614Z,83.84
2018-08-22T01:36:21.983Z,83.79
2018-08-22T01:38:48.308Z,83.61
2018-08-22T01:41:14.627Z,82.85
2018-08-22T01:43:41.003Z,82.26
2018-08-22T01:46:07.312Z,81.99
2018-08-22T01:48:33.633Z,81.92
2018-08-22T01:50:59.988Z,81.62
2018-08-22T01:53:26.300Z,81.25
2018-08-22T01:55:52.623Z,81.54
2018-08-22T01:58:18.949Z,82.00
2018-08-22T02:00:45.281Z,82.08
2018-08-22T02:03:11.611Z,82.33
2018-08-22T02:05:37.932Z,82.55
2018-08-22T02:08:04.286Z,83.20
2018-08-22T02:10:30.644Z,82.86
2018-08-22T02:12:56.980Z,82.52
2018-08-22T02:15:23.310Z,82.56
2018-08-22T02:17:49.695Z,82.63
2018-08-22T02:20:15.951Z,82.90
2018-08-22T02:22:42.269Z,82.99
2018-08-22T02:25:08.617Z,82.89
2018-08-22T02:27:34.906Z,82.83
2018-08-22T02:32:46.664Z,83.25
2018-08-22T02:35:12.984Z,83.32
2018-08-22T02:37:39.347Z,83.54
2018-08-22T02:40:05.680Z,83.13
2018-08-22T02:42:32.033Z,82.96
2018-08-22T02:44:58.401Z,83.02
2018-08-22T02:47:24.734Z,83.00
2018-08-22T02:49:51.055Z,83.36
2018-08-22T02:52:17.380Z,82.69
2018-08-22T02:54:43.724Z,83.11
2018-08-22T02:57:10.038Z,82.67
2018-08-22T02:59:36.389Z,82.89
2018-08-22T03:02:02.703Z,83.18
2018-08-22T03:04:29.052Z,83.44
2018-08-22T03:06:55.369Z,84.05
2018-08-22T03:09:21.689Z,84.30
2018-08-22T03:11:48.003Z,84.11
2018-08-22T03:14:14.367Z,84.16
2018-08-22T03:16:40.655Z,84.09
2018-08-22T03:19:06.974Z,83.76
2018-08-22T03:21:33.299Z,84.07
2018-08-22T03:23:59.634Z,83.73
2018-08-22T03:26:25.950Z,83.35
2018-08-22T03:28:52.265Z,83.17
2018-08-22T03:31:18.585Z,83.07
2018-08-22T03:33:44.905Z,83.12
2018-08-22T03:36:11.218Z,83.04
2018-08-22T03:38:37.553Z,82.69
2018-08-22T03:41:03.869Z,82.62
2018-08-22T03:43:30.177Z,82.43
2018-08-22T03:45:56.495Z,82.85
2018-08-22T03:48:22.816Z,82.56
2018-08-22T03:50:49.206Z,82.03
2018-08-22T03:53:15.556Z,82.11
2018-08-22T03:55:41.888Z,81.90
2018-08-22T03:58:08.213Z,82.15
2018-08-22T04:00:34.532Z,81.71
2018-08-22T04:03:00.843Z,81.23
2018-08-22T04:05:27.158Z,80.96
2018-08-22T04:07:53.482Z,80.55
2018-08-22T04:10:19.805Z,80.46
2018-08-22T04:12:46.145Z,80.48
2018-08-22T04:15:12.458Z,80.56
2018-08-22T04:17:38.768Z,80.66
2018-08-22T04:20:05.072Z,80.31
2018-08-22T04:22:31.389Z,79.79
2018-08-22T04:24:57.723Z,78.94
2018-08-22T04:27:24.040Z,77.89
2018-08-22T04:29:50.352Z,76.92
2018-08-22T04:32:16.673Z,75.85
2018-08-22T04:34:42.984Z,75.69
2018-08-22T04:37:09.290Z,75.47
2018-08-22T04:39:35.646Z,75.11
2018-08-22T04:42:02.003Z,73.84
2018-08-22T04:44:28.271Z,72.39
2018-08-22T04:46:54.584Z,70.07
2018-08-22T04:49:20.929Z,70.58
2018-08-22T04:51:47.247Z,71.10
2018-08-22T04:54:13.559Z,69.90
2018-08-22T04:56:39.872Z,68.75
2018-08-22T04:59:06.183Z,68.16
2018-08-22T05:01:32.498Z,68.13
2018-08-22T05:03:59.081Z,67.29
2018-08-22T05:06:25.394Z,66.10
2018-08-22T05:08:51.915Z,63.86
2018-08-22T05:11:18.062Z,62.89
2018-08-22T05:13:44.375Z,62.42
2018-08-22T05:16:10.681Z,63.01
2018-08-22T05:18:36.991Z,62.81
2018-08-22T05:21:03.348Z,62.63
2018-08-22T05:23:29.624Z,63.05
2018-08-22T05:25:55.945Z,62.91
2018-08-22T05:28:22.268Z,63.10
2018-08-22T05:30:48.586Z,62.49
2018-08-22T05:33:14.891Z,62.79
2018-08-22T05:35:41.208Z,62.86
2018-08-22T05:38:07.519Z,62.67
2018-08-22T05:40:33.897Z,61.91
2018-08-22T05:43:00.163Z,61.74
2018-08-22T05:45:26.477Z,61.07
2018-08-22T05:47:52.784Z,60.84
2018-08-22T05:50:19.107Z,60.84
2018-08-22T05:52:45.411Z,60.57
2018-08-22T05:55:11.730Z,60.25
2018-08-22T05:57:38.137Z,60.51
2018-08-22T06:00:04.475Z,61.42
2018-08-22T06:02:30.809Z,60.73
2018-08-22T06:04:57.159Z,59.80
2018-08-22T06:07:23.493Z,59.76
2018-08-22T06:09:49.808Z,58.96
2018-08-22T06:12:16.123Z,57.94
2018-08-22T06:14:42.466Z,57.43
2018-08-22T06:17:08.793Z,57.92
2018-08-22T06:19:35.111Z,58.41
2018-08-22T06:22:01.429Z,58.17
2018-08-22T06:24:27.751Z,56.56
2018-08-22T06:26:54.104Z,56.26
2018-08-22T06:29:20.426Z,56.51
2018-08-22T06:31:46.747Z,57.12
2018-08-22T06:34:13.058Z,57.06
2018-08-22T06:36:39.386Z,57.87
2018-08-22T06:39:05.712Z,57.39
2018-08-22T06:41:32.032Z,56.45
2018-08-22T06:43:58.345Z,55.09
2018-08-22T06:46:24.660Z,54.67
2018-08-22T06:48:50.985Z,53.34
2018-08-22T06:51:17.297Z,54.07
2018-08-22T06:53:43.627Z,53.69
2018-08-22T06:56:09.938Z,54.83
2018-08-22T06:58:36.254Z,55.50
2018-08-22T07:01:02.575Z,54.98
2018-08-22T07:03:28.901Z,53.56
2018-08-22T07:05:55.220Z,52.46
2018-08-22T07:08:21.616Z,51.48
2018-08-22T07:10:47.926Z,51.58
2018-08-22T07:13:14.493Z,51.27
2018-08-22T07:15:40.813Z,49.98
2018-08-22T07:18:07.116Z,49.30
2018-08-22T07:20:33.432Z,50.35
2018-08-22T07:22:59.760Z,49.46
2018-08-22T07:48:43.447Z,47.54
2018-08-22T07:51:09.788Z,46.28
2018-08-22T07:53:36.125Z,46.99
2018-08-22T07:56:02.447Z,46.94
2018-08-22T07:58:28.790Z,46.56
2018-08-22T08:00:55.112Z,45.91
2018-08-22T08:03:21.457Z,46.19
2018-08-22T08:05:47.782Z,46.25
2018-08-22T08:08:14.095Z,44.99
2018-08-22T08:10:40.434Z,45.55
2018-08-22T08:13:06.748Z,45.72
2018-08-22T08:15:33.078Z,45.32
2018-08-22T08:17:59.390Z,44.71
2018-08-22T08:20:25.757Z,44.21
2018-08-22T08:22:52.120Z,43.73
2018-08-22T08:25:18.481Z,43.15
2018-08-22T08:27:44.819Z,42.24
2018-08-22T08:30:11.167Z,41.21
2018-08-22T08:32:37.490Z,41.78
2018-08-22T08:35:03.801Z,40.62
2018-08-22T08:37:30.120Z,41.25
2018-08-22T08:39:56.439Z,39.52
2018-08-22T08:42:22.789Z,39.25
2018-08-22T08:44:49.090Z,39.04
2018-08-22T08:47:15.409Z,38.31
2018-08-22T08:49:41.833Z,37.78
2018-08-22T08:52:08.075Z,37.48
2018-08-22T08:54:34.396Z,37.73
2018-08-22T08:57:00.724Z,37.11
2018-08-22T08:59:27.059Z,36.02
2018-08-22T09:01:53.370Z,35.41
2018-08-22T09:04:19.705Z,34.88
2018-08-22T09:06:46.025Z,33.39
2018-08-22T09:09:12.384Z,34.18
2018-08-22T09:11:38.719Z,32.65
2018-08-22T09:14:06.014Z,34.02
2018-08-22T09:16:32.364Z,33.87
2018-08-22T09:18:58.715Z,33.72
2018-08-22T09:21:25.058Z,33.57
2018-08-22T09:23:51.337Z,33.74
2018-08-22T09:26:17.657Z,32.74
2018-08-22T09:28:43.978Z,32.77
2018-08-22T09:31:10.325Z,32.69
2018-08-22T09:33:36.660Z,33.18
2018-08-22T09:36:02.961Z,33.10
2018-08-22T09:38:29.279Z,32.86
2018-08-22T09:40:55.628Z,32.33
2018-08-22T09:43:22.004Z,32.03
2018-08-22T09:45:48.283Z,32.73
2018-08-22T09:48:14.614Z,32.12
2018-08-22T09:50:40.944Z,31.42
2018-08-22T09:53:07.224Z,31.70
2018-08-22T09:55:33.546Z,32.45
2018-08-22T09:57:59.902Z,31.66
2018-08-22T10:00:26.181Z,32.55
2018-08-22T10:02:52.512Z,31.91
2018-08-22T10:05:24.446Z,31.88
2018-08-22T10:07:50.702Z,31.85
2018-08-22T10:10:17.074Z,31.68
2018-08-22T10:12:43.360Z,31.31
2018-08-22T10:15:09.649Z,31.43
2018-08-22T10:17:35.975Z,31.79
2018-08-22T10:20:02.301Z,33.36
2018-08-22T10:22:28.634Z,34.26
2018-08-22T10:24:54.967Z,34.14
2018-08-22T10:27:21.302Z,32.90
2018-08-22T10:29:47.615Z,32.67
2018-08-22T10:32:13.959Z,32.37
2018-08-22T10:34:40.326Z,32.64
2018-08-22T10:37:06.660Z,32.65
2018-08-22T10:39:33.008Z,31.82
2018-08-22T10:41:59.312Z,31.98
2018-08-22T10:44:25.660Z,32.90
2018-08-22T10:46:51.951Z,32.39
2018-08-22T10:49:18.273Z,31.94
2018-08-22T10:51:44.593Z,32.20
2018-08-22T10:54:10.920Z,32.23
2018-08-22T10:56:37.285Z,32.32
2018-08-22T10:59:03.599Z,32.56
2018-08-22T11:01:29.935Z,32.26
2018-08-22T11:03:56.276Z,31.73
2018-08-22T11:06:22.583Z,31.71
2018-08-22T11:08:48.906Z,32.04
2018-08-22T11:11:15.234Z,31.92
2018-08-22T11:13:41.595Z,31.11
2018-08-22T11:16:07.940Z,32.39
2018-08-22T11:18:34.239Z,33.36
2018-08-22T11:21:00.568Z,33.99
2018-08-22T11:23:26.924Z,33.82
2018-08-22T11:25:53.284Z,33.76
2018-08-22T11:28:19.611Z,32.88
2018-08-22T11:30:45.978Z,31.81
2018-08-22T11:33:12.333Z,31.71
2018-08-22T11:35:38.648Z,31.72
2018-08-22T11:38:04.979Z,31.36
2018-08-22T11:40:31.323Z,30.59
2018-08-22T11:42:57.652Z,31.21
2018-08-22T11:45:23.972Z,30.25
2018-08-22T11:47:50.287Z,30.65
2018-08-22T11:50:16.597Z,31.10
2018-08-22T11:52:42.955Z,31.29
2018-08-22T11:55:09.273Z,31.93
2018-08-22T11:57:35.588Z,32.38
2018-08-22T12:00:01.942Z,32.54
2018-08-22T12:02:28.267Z,32.53
2018-08-22T12:04:54.587Z,31.86
2018-08-22T12:07:20.944Z,32.00
2018-08-22T12:09:47.259Z,32.49
2018-08-22T12:12:13.596Z,31.60
2018-08-22T12:14:39.915Z,31.61
2018-08-22T12:17:06.236Z,31.10
2018-08-22T12:19:32.559Z,31.72
2018-08-22T12:22:06.036Z,31.74
2018-08-22T12:24:26.141Z,31.10
2018-08-22T12:26:55.109Z,32.50
2018-08-22T12:29:19.613Z,34.68
2018-08-22T12:31:45.937Z,34.92
2018-08-22T12:34:12.271Z,35.22
2018-08-22T12:36:38.588Z,34.28
2018-08-22T12:39:04.918Z,33.67
2018-08-22T12:41:31.442Z,33.60
2018-08-22T12:44:05.526Z,33.50
2018-08-22T12:46:26.194Z,35.59
2018-08-22T12:48:52.515Z,36.73
2018-08-22T12:51:18.859Z,37.39
2018-08-22T12:53:45.236Z,38.01
2018-08-22T12:56:11.552Z,37.49
2018-08-22T12:58:37.855Z,35.97
2018-08-22T13:01:04.173Z,35.71
2018-08-22T13:03:30.496Z,35.13
2018-08-22T13:05:56.811Z,35.00
2018-08-22T13:08:23.123Z,34.66
2018-08-22T13:10:49.445Z,35.10
2018-08-22T13:16:01.287Z,33.74
2018-08-22T13:18:27.614Z,34.27
2018-08-22T13:20:53.948Z,36.33
2018-08-22T13:23:20.287Z,37.13
2018-08-22T13:25:49.574Z,37.42
2018-08-22T13:28:15.845Z,38.42
2018-08-22T13:30:42.172Z,39.07
2018-08-22T13:33:08.499Z,38.88
2018-08-22T13:35:34.831Z,38.71
2018-08-22T13:38:01.139Z,38.48
2018-08-22T13:40:31.628Z,39.04
2018-08-22T13:42:55.429Z,39.14
2018-08-22T13:45:21.741Z,39.33
2018-08-22T13:47:48.067Z,38.84
2018-08-22T13:50:14.400Z,38.93
2018-08-22T13:52:40.751Z,38.57
2018-08-22T13:55:07.077Z,39.22
2018-08-22T13:57:35.544Z,39.79
2018-08-22T14:00:00.735Z,39.74
2018-08-22T14:02:27.025Z,39.12
2018-08-22T14:04:54.546Z,39.38
2018-08-22T14:07:20.802Z,39.26
2018-08-22T14:09:47.141Z,39.58
2018-08-22T14:12:13.450Z,39.47
2018-08-22T14:14:42.556Z,39.67
2018-08-22T14:17:08.891Z,39.74
2018-08-22T14:19:35.218Z,39.43
2018-08-22T14:22:01.576Z,39.39
2018-08-22T14:24:27.867Z,39.14
2018-08-22T14:26:54.191Z,39.28
2018-08-22T14:29:20.529Z,39.07
2018-08-22T14:31:46.842Z,39.08
2018-08-22T14:34:13.198Z,38.85
2018-08-22T14:36:39.551Z,38.98
2018-08-22T14:39:05.869Z,39.09
2018-08-22T14:41:32.545Z,39.72
2018-08-22T14:43:58.837Z,39.93
2018-08-22T14:46:25.149Z,40.67
2018-08-22T14:48:51.466Z,40.74
2018-08-22T14:51:17.817Z,40.74
2018-08-22T14:53:44.142Z,40.67
2018-08-22T14:56:10.503Z,41.17
2018-08-22T14:58:36.799Z,41.50
2018-08-22T15:01:03.137Z,41.95
2018-08-22T15:03:29.632Z,42.18
2018-08-22T15:05:55.784Z,42.72
2018-08-22T15:08:22.122Z,42.54
2018-08-22T15:10:48.450Z,42.22
2018-08-22T15:13:14.776Z,42.38
2018-08-22T15:15:41.131Z,42.21
2018-08-22T15:18:07.438Z,41.43
2018-08-22T15:20:33.758Z,41.60
2018-08-22T15:23:00.131Z,40.94
2018-08-22T15:25:26.495Z,41.10
2018-08-22T15:27:52.817Z,41.13
2018-08-22T15:30:19.184Z,41.20
2018-08-22T15:32:45.499Z,41.19
2018-08-22T15:35:11.832Z,41.42
2018-08-22T15:37:38.164Z,41.44
2018-08-22T15:40:04.491Z,41.58
2018-08-22T15:42:30.829Z,41.56
2018-08-22T15:45:01.035Z,41.50
2018-08-22T15:47:24.507Z,41.65
2018-08-22T15:49:50.747Z,41.62
2018-08-22T15:52:17.132Z,41.58
2018-08-22T15:54:43.436Z,41.94
2018-08-22T15:57:09.780Z,41.70
2018-08-22T15:59:36.137Z,41.81
2018-08-22T16:02:02.495Z,42.22
2018-08-22T16:04:28.825Z,42.37
2018-08-22T16:06:55.145Z,42.57
2018-08-22T16:09:21.463Z,42.73
2018-08-22T16:11:47.805Z,42.84
2018-08-22T16:14:14.133Z,43.19
2018-08-22T16:16:40.465Z,43.30
2018-08-22T16:19:06.801Z,43.39
2018-08-22T16:21:33.166Z,43.65
2018-08-22T16:23:59.516Z,43.81
2018-08-22T16:26:25.850Z,44.09
2018-08-22T16:28:52.194Z,44.24
2018-08-22T16:31:18.567Z,44.33
2018-08-22T16:33:44.849Z,44.71
2018-08-22T16:36:11.176Z,44.73
2018-08-22T16:38:37.496Z,44.93
2018-08-22T16:41:03.832Z,45.27
2018-08-22T16:43:30.148Z,45.38
2018-08-22T16:45:56.499Z,45.53
2018-08-22T16:48:22.832Z,45.68
2018-08-22T16:50:49.159Z,45.86
2018-08-22T16:53:15.510Z,45.95
2018-08-22T16:55:41.937Z,46.25
2018-08-22T16:58:08.267Z,46.49
2018-08-22T17:00:34.645Z,46.44
2018-08-22T17:03:00.980Z,46.61
2018-08-22T17:05:27.323Z,46.59
2018-08-22T17:07:53.721Z,46.96
2018-08-22T17:10:19.993Z,47.28
2018-08-22T17:12:46.335Z,47.16
2018-08-22T17:15:12.700Z,47.68
2018-08-22T17:17:39.014Z,47.69
2018-08-22T17:20:05.331Z,47.67
2018-08-22T17:22:31.649Z,47.80
2018-08-22T17:24:57.982Z,47.84
2018-08-22T17:27:24.354Z,47.95
2018-08-22T17:29:50.674Z,47.87
2018-08-22T17:32:16.999Z,48.06
2018-08-22T17:34:43.330Z,48.17
2018-08-22T17:37:09.648Z,48.24
2018-08-22T17:39:35.969Z,48.41
2018-08-22T17:42:02.292Z,48.76
2018-08-22T17:44:28.637Z,48.72
2018-08-22T17:46:54.956Z,48.91
2018-08-22T17:49:21.322Z,49.25
2018-08-22T17:51:47.659Z,49.42
2018-08-22T17:54:14.024Z,49.79
2018-08-22T17:56:40.324Z,50.02
2018-08-22T17:59:06.632Z,50.47
2018-08-22T18:01:33.197Z,50.81
2018-08-22T18:03:59.520Z,51.12
2018-08-22T18:06:26.038Z,50.96
2018-08-22T18:08:52.280Z,51.25
2018-08-22T18:11:18.589Z,50.79
2018-08-22T18:13:44.995Z,50.87
2018-08-22T18:16:11.323Z,50.76
2018-08-22T18:18:37.742Z,50.64
2018-08-22T18:21:04.091Z,51.03
2018-08-22T18:23:30.423Z,50.93
2018-08-22T18:25:56.757Z,50.94
2018-08-22T18:28:23.111Z,51.01
2018-08-22T18:30:49.461Z,50.99
2018-08-22T18:33:15.791Z,51.14
2018-08-22T18:35:42.111Z,51.21
2018-08-22T18:38:08.459Z,51.41
2018-08-22T18:40:34.799Z,51.37
2018-08-22T18:43:01.134Z,51.65
2018-08-22T18:45:27.442Z,51.36
2018-08-22T18:47:53.822Z,51.48
2018-08-22T18:50:20.123Z,51.27
2018-08-22T18:52:46.497Z,51.52
2018-08-22T18:55:12.857Z,51.61
2018-08-22T18:57:39.173Z,51.99
2018-08-22T19:00:05.515Z,51.99
2018-08-22T19:02:31.848Z,51.85
2018-08-22T19:04:58.190Z,51.99
2018-08-22T19:07:24.504Z,52.28
2018-08-22T19:09:50.815Z,52.74
2018-08-22T19:12:17.142Z,52.94
2018-08-22T19:14:43.458Z,53.28
2018-08-22T19:17:09.781Z,53.56
2018-08-22T19:19:36.109Z,53.75
2018-08-22T19:22:02.494Z,53.92
2018-08-22T19:24:28.810Z,53.95
2018-08-22T19:26:55.194Z,54.16
2018-08-22T19:29:21.526Z,54.44
2018-08-22T19:31:47.858Z,54.54
2018-08-22T19:34:14.177Z,54.74
2018-08-22T19:36:40.497Z,54.94
2018-08-22T19:39:06.867Z,55.03
2018-08-22T19:41:33.240Z,55.23
2018-08-22T19:43:59.584Z,55.50
2018-08-22T19:46:25.901Z,55.66
2018-08-22T19:48:52.273Z,55.66
2018-08-22T19:51:18.597Z,55.99
2018-08-22T19:53:44.919Z,56.58
2018-08-22T19:56:11.273Z,56.41
2018-08-22T19:58:37.579Z,56.56
2018-08-22T20:01:03.892Z,56.38
2018-08-22T20:03:30.221Z,56.87
2018-08-22T20:05:56.552Z,57.19
2018-08-22T20:08:22.877Z,57.97
2018-08-22T20:10:49.215Z,58.14
2018-08-22T20:13:15.534Z,58.65
2018-08-22T20:15:41.876Z,58.82
2018-08-22T20:18:08.195Z,58.56
2018-08-22T20:20:34.559Z,58.72
2018-08-22T20:23:00.918Z,58.76
2018-08-22T20:25:27.195Z,58.85
2018-08-22T20:27:53.522Z,58.97
2018-08-22T20:30:19.863Z,58.96
2018-08-22T20:32:46.187Z,59.05
2018-08-22T20:35:12.467Z,58.84
2018-08-22T20:37:38.804Z,58.70
2018-08-22T20:40:05.122Z,58.65
2018-08-22T20:42:31.560Z,58.67
2018-08-22T20:44:57.861Z,58.55
2018-08-22T20:47:24.187Z,58.37
2018-08-22T20:49:50.520Z,58.65
2018-08-22T20:52:16.854Z,58.13
2018-08-22T20:54:43.218Z,58.86
2018-08-22T20:57:09.526Z,59.22
2018-08-22T20:59:35.926Z,58.97
2018-08-22T21:02:02.313Z,58.93
2018-08-22T21:04:28.598Z,59.11
2018-08-22T21:06:54.934Z,59.06
2018-08-22T21:09:21.244Z,59.94
2018-08-22T21:11:47.592Z,60.52
2018-08-22T21:14:13.938Z,61.01
2018-08-22T21:16:40.258Z,61.79
2018-08-22T21:19:06.583Z,62.52
2018-08-22T21:21:32.906Z,62.58
2018-08-22T21:23:59.214Z,63.33
2018-08-22T21:26:25.522Z,63.39
2018-08-22T21:28:51.839Z,63.38
2018-08-22T21:31:18.174Z,63.50
2018-08-22T21:33:44.494Z,63.47
2018-08-22T21:36:10.820Z,63.56
2018-08-22T21:38:37.132Z,63.52
2018-08-22T21:41:03.444Z,63.88
2018-08-22T21:43:29.784Z,63.89
2018-08-22T21:45:56.099Z,64.24
2018-08-22T21:48:22.412Z,64.63
2018-08-22T21:50:48.731Z,65.06
2018-08-22T21:53:15.049Z,65.40
2018-08-22T21:55:41.360Z,65.71
2018-08-22T21:58:07.671Z,65.85
2018-08-22T22:00:34.024Z,65.81
2018-08-22T22:03:00.358Z,66.52
2018-08-22T22:05:26.717Z,66.66
2018-08-22T22:07:53.127Z,66.93
2018-08-22T22:10:19.438Z,67.19
2018-08-22T22:12:45.753Z,67.81
2018-08-22T22:15:12.109Z,67.59
2018-08-22T22:17:38.417Z,67.97
2018-08-22T22:20:04.743Z,67.85
2018-08-22T22:22:31.047Z,67.67
2018-08-22T22:24:57.394Z,67.38
2018-08-22T22:27:23.708Z,67.39
2018-08-22T22:29:50.037Z,66.52
2018-08-22T22:32:16.392Z,66.79
2018-08-22T22:34:42.704Z,66.36
2018-08-22T22:37:09.026Z,66.65
2018-08-22T22:39:35.404Z,66.29
2018-08-22T22:42:01.733Z,66.17
2018-08-22T22:44:28.056Z,65.47
2018-08-22T22:46:54.384Z,65.11
2018-08-22T22:49:20.704Z,64.36
2018-08-22T22:51:47.027Z,62.23
2018-08-22T22:54:13.351Z,62.35
2018-08-22T22:56:39.685Z,61.59
2018-08-22T22:59:06.012Z,59.38
2018-08-22T23:01:32.420Z,57.91
2018-08-22T23:03:58.801Z,56.77
2018-08-22T23:06:25.108Z,56.98
2018-08-22T23:08:51.436Z,56.79
2018-08-22T23:11:17.767Z,57.05
2018-08-22T23:13:44.108Z,56.28
2018-08-22T23:16:10.411Z,55.28
2018-08-22T23:18:36.820Z,55.44
2018-08-22T23:21:03.039Z,54.46
2018-08-22T23:23:30.249Z,54.56
2018-08-22T23:25:56.585Z,54.58
2018-08-22T23:28:23.037Z,53.63
2018-08-22T23:30:49.360Z,53.70
2018-08-22T23:33:15.690Z,52.95
2018-08-22T23:35:42.011Z,52.88
2018-08-22T23:38:08.360Z,52.60
2018-08-22T23:40:34.697Z,51.66
2018-08-22T23:43:01.072Z,52.14
2018-08-22T23:45:27.349Z,51.70
2018-08-22T23:47:53.672Z,52.07
2018-08-22T23:50:19.982Z,52.39
2018-08-22T23:52:46.297Z,52.64
2018-08-22T23:55:12.620Z,52.45
2018-08-22T23:57:38.939Z,50.93
